Time;durP1;ratioP1;P1;durP2;ratioP2;P2;SDS_P1;SDS_P2;PMS_P1;PMS_P2;Temp;Humidity;BMP_temperature;BMP_pressure;BME280_temperature;BME280_humidity;BME280_pressure;Samples;Min_cycle;Max_cycle;Signal;HPM_P1;HPM_P2
2022/03/31 00:00:34;;;;;;;19.43;13.27;;;12.30;65.10;;;-142.21;100.00;112049.66;4947606;28;20500;-72
2022/03/31 00:03:05;;;;;;;19.60;12.73;;;12.30;65.10;;;-142.21;100.00;112049.66;4948425;29;20457;-72
2022/03/31 00:05:32;;;;;;;16.73;12.20;;;12.20;65.00;;;-142.21;100.00;112049.66;4954301;29;20481;-72
2022/03/31 00:08:03;;;;;;;17.87;12.40;;;12.20;65.00;;;-142.21;100.00;112049.66;4953667;29;20453;-72
2022/03/31 00:10:34;;;;;;;17.80;12.07;;;12.20;65.20;;;-142.21;100.00;112049.66;4954471;29;20508;-72
2022/03/31 00:13:04;;;;;;;15.67;11.60;;;12.20;65.20;;;-142.21;100.00;112049.66;4945342;29;20450;-72
2022/03/31 00:15:33;;;;;;;16.13;10.97;;;12.10;65.10;;;-142.21;100.00;112049.66;4951342;29;20956;-72
2022/03/31 00:18:03;;;;;;;19.03;12.37;;;12.10;64.70;;;-142.21;100.00;112049.66;4953359;29;21012;-72
2022/03/31 00:20:30;;;;;;;22.73;13.93;;;12.10;65.00;;;-142.21;100.00;112049.66;4954445;29;20491;-72
2022/03/31 00:22:59;;;;;;;19.90;12.97;;;12.00;65.80;;;-142.21;100.00;112049.66;4952131;28;20484;-72
2022/03/31 00:25:27;;;;;;;20.97;14.50;;;12.00;66.10;;;-142.21;100.00;112049.66;4953899;29;20864;-72
2022/03/31 00:27:56;;;;;;;19.80;14.23;;;12.00;66.80;;;-142.21;100.00;112049.66;4954197;29;20484;-72
2022/03/31 00:30:23;;;;;;;19.37;13.10;;;12.00;66.90;;;-142.21;100.00;112049.66;4953962;29;20452;-72
2022/03/31 00:32:51;;;;;;;21.27;14.27;;;12.00;66.70;;;-142.21;100.00;112049.66;4953416;29;21069;-72
2022/03/31 00:35:18;;;;;;;20.27;13.27;;;12.00;66.70;;;-142.21;100.00;112049.66;4952930;29;20802;-72
2022/03/31 00:37:47;;;;;;;19.20;13.17;;;12.00;66.80;;;-142.21;100.00;112049.66;4952756;29;20463;-72
2022/03/31 00:40:19;;;;;;;18.73;13.13;;;12.00;67.30;;;-142.21;100.00;112049.66;4952714;29;20949;-72
2022/03/31 00:42:49;;;;;;;18.13;12.83;;;12.00;68.40;;;-142.21;100.00;112049.66;4954640;29;20865;-72
2022/03/31 00:45:19;;;;;;;17.27;12.10;;;11.80;67.90;;;-142.21;100.00;112049.66;4952607;29;20992;-72
2022/03/31 00:47:47;;;;;;;17.10;12.10;;;11.80;67.60;;;-142.21;100.00;112049.66;4953229;29;20461;-72
2022/03/31 00:50:16;;;;;;;14.53;10.97;;;11.90;67.70;;;-142.21;100.00;112049.66;4952783;29;20449;-72
2022/03/31 00:52:44;;;;;;;13.40;10.70;;;11.90;67.50;;;-142.21;100.00;112049.66;4953008;29;20978;-72
2022/03/31 00:55:14;;;;;;;16.23;11.07;;;11.80;67.00;;;-142.21;100.00;112049.66;4953921;29;20500;-72
2022/03/31 00:57:44;;;;;;;15.40;9.30;;;11.80;67.80;;;-142.21;100.00;112049.66;4954360;29;20527;-72
2022/03/31 01:00:14;;;;;;;12.90;9.90;;;11.80;66.80;;;-142.21;100.00;112049.66;4953002;29;21008;-71
2022/03/31 01:02:44;;;;;;;11.90;9.63;;;11.80;67.40;;;-142.21;100.00;112049.66;4952849;29;20441;-72
2022/03/31 01:05:14;;;;;;;12.30;8.87;;;11.80;66.60;;;-142.21;100.00;112049.66;4952993;29;20488;-72
2022/03/31 01:07:42;;;;;;;11.90;8.87;;;11.80;66.50;;;-142.21;100.00;112049.66;4953471;29;20841;-72
2022/03/31 01:10:11;;;;;;;11.60;9.13;;;11.90;65.90;;;-142.21;100.00;112049.66;4952508;28;20488;-72
2022/03/31 01:12:39;;;;;;;11.60;8.70;;;11.90;66.30;;;-142.21;100.00;112049.66;4952644;29;20453;-72
2022/03/31 01:15:11;;;;;;;9.83;8.43;;;12.00;66.20;;;-142.21;100.00;112049.66;4952984;29;20503;-72
2022/03/31 01:17:40;;;;;;;10.70;8.43;;;11.90;65.00;;;-142.21;100.00;112049.66;4952692;29;20484;-72
2022/03/31 01:20:11;;;;;;;11.17;8.03;;;11.70;65.90;;;-142.21;100.00;112049.66;4953642;29;20472;-71
2022/03/31 01:22:39;;;;;;;9.97;8.07;;;11.70;65.70;;;-142.21;100.00;112049.66;4952930;29;20556;-71
2022/03/31 01:25:09;;;;;;;12.37;8.70;;;11.60;65.10;;;-142.21;100.00;112049.66;4953571;29;20493;-72
2022/03/31 01:27:39;;;;;;;10.00;8.10;;;11.80;65.90;;;-142.21;100.00;112049.66;4952800;29;20445;-72
2022/03/31 01:30:09;;;;;;;11.77;8.80;;;11.90;65.10;;;-142.21;100.00;112049.66;4930246;29;20529;-71
2022/03/31 01:32:39;;;;;;;9.97;8.00;;;11.90;65.20;;;-142.21;100.00;112049.66;4947680;29;20887;-71
2022/03/31 01:35:08;;;;;;;8.10;7.20;;;11.90;64.70;;;-142.21;100.00;112049.66;4953186;29;20446;-72
2022/03/31 01:37:35;;;;;;;10.17;8.33;;;12.00;64.20;;;-142.21;100.00;112049.66;4953659;29;20451;-71
2022/03/31 01:40:03;;;;;;;9.57;7.70;;;11.90;64.30;;;-142.21;100.00;112049.66;4952538;29;20793;-72
2022/03/31 01:42:32;;;;;;;11.53;8.60;;;12.00;64.50;;;-142.21;100.00;112049.66;4951906;29;20452;-71
2022/03/31 01:44:59;;;;;;;10.87;8.80;;;12.00;64.40;;;-142.21;100.00;112049.66;4952612;29;20495;-71
2022/03/31 01:47:27;;;;;;;9.60;8.30;;;12.00;64.30;;;-142.21;100.00;112049.66;4953033;29;20453;-71
2022/03/31 01:49:54;;;;;;;11.20;8.17;;;11.80;64.20;;;-142.21;100.00;112049.66;4951506;28;20452;-72
2022/03/31 01:52:22;;;;;;;10.07;8.37;;;11.80;64.70;;;-142.21;100.00;112049.66;4953487;29;20854;-72
2022/03/31 01:54:50;;;;;;;10.00;8.00;;;11.80;63.90;;;-142.21;100.00;112049.66;4953152;29;20863;-72
2022/03/31 01:57:17;;;;;;;11.17;8.80;;;11.50;65.10;;;-142.21;100.00;112049.66;4952080;29;20487;-72
2022/03/31 01:59:46;;;;;;;12.73;9.50;;;11.50;65.60;;;-142.21;100.00;112049.66;4952828;29;20462;-72
2022/03/31 02:02:14;;;;;;;11.53;9.67;;;11.40;65.50;;;-142.21;100.00;112049.66;4952419;29;20452;-72
2022/03/31 02:04:42;;;;;;;12.23;9.80;;;11.50;66.00;;;-142.21;100.00;112049.66;4943801;29;20492;-72
2022/03/31 02:07:10;;;;;;;12.87;9.80;;;11.30;66.50;;;-142.21;100.00;112049.66;4952653;28;20543;-72
2022/03/31 02:09:37;;;;;;;13.17;9.47;;;11.40;66.10;;;-142.21;100.00;112049.66;4948613;29;20825;-71
2022/03/31 02:12:07;;;;;;;10.57;9.43;;;11.40;65.90;;;-142.21;100.00;112049.66;4952344;28;20471;-71
2022/03/31 02:14:37;;;;;;;13.00;9.80;;;11.40;66.90;;;-142.21;100.00;112049.66;4934879;29;20472;-72
2022/03/31 02:17:06;;;;;;;11.30;9.80;;;11.40;67.00;;;-142.21;100.00;112049.66;4952290;29;20448;-71
2022/03/31 02:19:33;;;;;;;13.10;9.53;;;11.30;67.30;;;-142.21;100.00;112049.66;4952806;29;20877;-71
2022/03/31 02:22:00;;;;;;;12.33;10.13;;;11.20;66.60;;;-142.21;100.00;112049.66;4953473;29;20448;-73
2022/03/31 02:24:27;;;;;;;11.30;8.97;;;11.30;66.50;;;-142.21;100.00;112049.66;4952571;28;20496;-72
2022/03/31 02:26:55;;;;;;;15.03;10.57;;;11.30;67.30;;;-142.21;100.00;112049.66;4954830;29;20539;-73
2022/03/31 02:29:22;;;;;;;14.40;10.70;;;11.40;66.10;;;-142.21;100.00;112049.66;4954669;29;20445;-71
2022/03/31 02:31:50;;;;;;;12.30;9.63;;;11.30;66.00;;;-142.21;100.00;112049.66;4954643;29;20453;-72
2022/03/31 02:34:19;;;;;;;12.90;10.40;;;11.40;66.00;;;-142.21;100.00;112049.66;4956261;29;20477;-72
2022/03/31 02:36:47;;;;;;;13.93;10.00;;;11.20;65.90;;;-142.21;100.00;112049.66;4954788;29;20447;-73
2022/03/31 02:39:14;;;;;;;13.50;10.13;;;11.20;66.40;;;-142.21;100.00;112049.66;4945322;29;20464;-71
2022/03/31 02:41:42;;;;;;;12.37;9.60;;;11.10;65.80;;;-142.21;100.00;112049.66;4955858;29;20457;-71
2022/03/31 02:44:10;;;;;;;13.10;10.53;;;11.10;66.20;;;-142.21;100.00;112049.66;4947854;29;20448;-71
2022/03/31 02:46:38;;;;;;;12.60;9.50;;;11.20;65.90;;;-142.21;100.00;112049.66;4951491;29;20453;-72
2022/03/31 02:49:05;;;;;;;13.50;10.13;;;11.20;65.20;;;-142.21;100.00;112049.66;4955192;29;20453;-71
2022/03/31 02:51:34;;;;;;;13.50;10.07;;;11.30;65.30;;;-142.21;100.00;112049.66;4955175;29;20816;-71
2022/03/31 02:56:46;;;;;;;14.27;10.13;;;11.30;64.90;;;-142.21;100.00;112049.66;4954853;29;20456;-71
2022/03/31 02:59:13;;;;;;;12.10;9.73;;;11.30;64.90;;;-142.21;100.00;112049.66;4953671;29;20445;-72
2022/03/31 03:01:43;;;;;;;10.73;9.23;;;11.30;64.80;;;-142.21;100.00;112049.66;4956183;29;20508;-71
2022/03/31 03:04:10;;;;;;;13.37;10.13;;;11.30;64.20;;;-142.21;100.00;112049.66;4954908;29;20547;-71
2022/03/31 03:06:39;;;;;;;13.77;10.43;;;11.30;64.40;;;-142.21;100.00;112049.66;4954482;29;20540;-72
2022/03/31 03:09:08;;;;;;;13.80;11.10;;;11.30;64.20;;;-142.21;100.00;112049.66;4956730;29;20453;-72
2022/03/31 03:11:38;;;;;;;12.63;10.13;;;11.30;64.30;;;-142.21;100.00;112049.66;4958533;28;20568;-71
2022/03/31 03:14:06;;;;;;;12.87;9.90;;;11.20;63.90;;;-142.21;100.00;112049.66;4959353;29;20459;-71
2022/03/31 03:16:34;;;;;;;12.50;9.67;;;11.10;63.50;;;-142.21;100.00;112049.66;4969539;29;20460;-71
2022/03/31 03:19:01;;;;;;;12.63;10.17;;;10.90;63.80;;;-142.21;100.00;112049.66;4967436;28;20449;-72
2022/03/31 03:21:28;;;;;;;13.03;9.43;;;10.80;64.50;;;-142.21;100.00;112049.66;4945316;29;20458;-72
2022/03/31 03:23:56;;;;;;;12.83;10.03;;;10.70;65.70;;;-142.21;100.00;112049.66;4944732;29;20480;-72
2022/03/31 03:26:23;;;;;;;13.40;10.00;;;10.60;64.90;;;-142.21;100.00;112049.66;4954677;28;21019;-72
2022/03/31 03:28:51;;;;;;;13.97;10.67;;;10.60;65.20;;;-142.21;100.00;112049.66;4955146;29;20532;-72
2022/03/31 03:31:18;;;;;;;12.73;10.30;;;10.60;64.50;;;-142.21;100.00;112049.66;4954581;29;20448;-72
2022/03/31 03:33:45;;;;;;;14.33;10.80;;;10.60;64.60;;;-142.21;100.00;112049.66;4955134;29;20532;-71
2022/03/31 03:36:12;;;;;;;13.17;10.20;;;10.60;64.10;;;-142.21;100.00;112049.66;4953882;28;20806;-72
2022/03/31 03:38:40;;;;;;;12.00;9.33;;;10.60;64.10;;;-142.21;100.00;112049.66;4954749;29;20448;-71
2022/03/31 03:41:11;;;;;;;12.93;10.03;;;10.60;64.00;;;-142.21;100.00;112049.66;4953576;29;20503;-71
2022/03/31 03:43:39;;;;;;;11.63;9.87;;;10.70;64.10;;;-142.21;100.00;112049.66;4934266;29;20532;-71
2022/03/31 03:46:06;;;;;;;12.87;9.87;;;10.80;63.60;;;-142.21;100.00;112049.66;4950203;29;20488;-72
2022/03/31 03:48:33;;;;;;;12.73;10.00;;;10.90;63.50;;;-142.21;100.00;112049.66;4953426;29;20445;-72
2022/03/31 03:51:01;;;;;;;13.67;10.17;;;11.00;63.00;;;-142.21;100.00;112049.66;4952238;29;20453;-72
2022/03/31 03:53:28;;;;;;;12.67;9.80;;;10.90;63.50;;;-142.21;100.00;112049.66;4954034;29;20459;-71
2022/03/31 03:55:55;;;;;;;13.77;9.87;;;10.80;63.60;;;-142.21;100.00;112049.66;4953793;29;20452;-72
2022/03/31 03:58:23;;;;;;;13.30;9.83;;;10.70;64.20;;;-142.21;100.00;112049.66;4969162;28;20460;-72
2022/03/31 04:00:51;;;;;;;12.47;9.60;;;10.60;64.90;;;-142.21;100.00;112049.66;4954174;29;20456;-72
2022/03/31 04:03:18;;;;;;;12.07;9.80;;;10.60;64.50;;;-142.21;100.00;112049.66;4954446;29;20452;-71
2022/03/31 04:05:45;;;;;;;12.37;9.93;;;10.60;65.30;;;-142.21;100.00;112049.66;4953534;29;20511;-72
2022/03/31 04:08:12;;;;;;;12.93;9.77;;;10.40;65.60;;;-142.21;100.00;112049.66;4953837;29;20457;-71
2022/03/31 04:10:39;;;;;;;14.80;11.03;;;10.40;66.20;;;-142.21;100.00;112049.66;4952959;28;20465;-71
2022/03/31 04:13:06;;;;;;;14.17;10.93;;;10.50;66.00;;;-142.21;100.00;112049.66;4953887;29;20467;-69
2022/03/31 04:15:35;;;;;;;14.73;10.83;;;10.50;66.30;;;-142.21;100.00;112049.66;4951215;29;20957;-72
2022/03/31 04:18:02;;;;;;;12.70;10.00;;;10.60;65.90;;;-142.21;100.00;112049.66;4957882;28;20548;-72
2022/03/31 04:20:30;;;;;;;14.70;11.10;;;10.50;66.00;;;-142.21;100.00;112049.66;4954585;29;21004;-72
2022/03/31 04:22:57;;;;;;;15.27;10.20;;;10.50;65.20;;;-142.21;100.00;112049.66;4953525;28;20485;-73
2022/03/31 04:25:24;;;;;;;16.23;10.37;;;10.60;65.90;;;-142.21;100.00;112049.66;4953946;29;20497;-72
2022/03/31 04:27:51;;;;;;;14.00;10.37;;;10.50;65.80;;;-142.21;100.00;112049.66;4952875;29;20472;-72
2022/03/31 04:30:20;;;;;;;16.30;10.40;;;10.50;66.00;;;-142.21;100.00;112049.66;4953998;29;20929;-72
2022/03/31 04:32:51;;;;;;;14.97;11.13;;;10.50;66.00;;;-142.21;100.00;112049.66;4953183;29;20488;-71
2022/03/31 04:35:19;;;;;;;16.90;10.93;;;10.60;66.70;;;-142.21;100.00;112049.66;4953742;29;20441;-72
2022/03/31 04:37:47;;;;;;;13.47;10.50;;;10.60;66.10;;;-142.21;100.00;112049.66;4949511;29;20468;-72
2022/03/31 04:40:15;;;;;;;14.77;9.57;;;10.60;66.30;;;-142.21;100.00;112049.66;4952991;29;20457;-72
2022/03/31 04:42:42;;;;;;;14.60;10.27;;;10.70;66.30;;;-142.21;100.00;112049.66;4920065;29;20457;-71
2022/03/31 04:45:10;;;;;;;14.07;10.63;;;10.70;65.90;;;-142.21;100.00;112049.66;4953284;28;20484;-71
2022/03/31 04:47:38;;;;;;;13.20;10.30;;;10.80;66.30;;;-142.21;100.00;112049.66;4948067;28;20535;-72
2022/03/31 04:50:07;;;;;;;15.47;11.10;;;10.80;66.00;;;-142.21;100.00;112049.66;4953307;29;20459;-71
2022/03/31 04:52:34;;;;;;;14.10;10.10;;;10.60;66.10;;;-142.21;100.00;112049.66;4950911;29;20540;-72
2022/03/31 04:55:01;;;;;;;15.00;10.73;;;10.60;66.40;;;-142.21;100.00;112049.66;4957616;28;20466;-72
2022/03/31 04:57:28;;;;;;;16.30;11.77;;;10.60;66.60;;;-142.21;100.00;112049.66;4955450;28;20445;-72
2022/03/31 04:59:55;;;;;;;15.50;10.37;;;10.50;66.90;;;-142.21;100.00;112049.66;4953787;29;20459;-72
2022/03/31 05:02:22;;;;;;;15.50;10.77;;;10.40;66.90;;;-142.21;100.00;112049.66;4952965;29;20456;-72
2022/03/31 05:04:50;;;;;;;16.80;11.40;;;10.40;67.60;;;-142.21;100.00;112049.66;4953017;29;20448;-72
2022/03/31 05:07:19;;;;;;;14.43;10.17;;;10.40;67.50;;;-142.21;100.00;112049.66;4952992;29;20444;-72
2022/03/31 05:09:46;;;;;;;13.83;10.77;;;10.30;67.50;;;-142.21;100.00;112049.66;4952056;29;20456;-72
2022/03/31 05:12:14;;;;;;;13.13;9.60;;;10.30;67.50;;;-142.21;100.00;112049.66;4953319;28;20472;-71
2022/03/31 05:14:41;;;;;;;13.83;10.57;;;10.20;68.00;;;-142.21;100.00;112049.66;4958156;28;20461;-72
2022/03/31 05:17:09;;;;;;;14.80;10.47;;;10.30;68.20;;;-142.21;100.00;112049.66;4953070;29;20984;-72
2022/03/31 05:19:37;;;;;;;14.03;10.17;;;10.30;68.80;;;-142.21;100.00;112049.66;4952966;29;20595;-71
2022/03/31 05:22:05;;;;;;;15.30;10.63;;;10.30;68.30;;;-142.21;100.00;112049.66;4952172;29;20500;-72
2022/03/31 05:24:34;;;;;;;16.50;10.57;;;10.20;68.50;;;-142.21;100.00;112049.66;4952566;29;20477;-72
2022/03/31 05:27:01;;;;;;;16.63;11.67;;;10.10;68.40;;;-142.21;100.00;112049.66;4952323;29;20496;-71
2022/03/31 05:29:28;;;;;;;15.47;10.30;;;10.10;68.60;;;-142.21;100.00;112049.66;4952703;29;20467;-72
2022/03/31 05:31:57;;;;;;;14.27;10.83;;;10.20;68.90;;;-142.21;100.00;112049.66;4952995;29;20460;-71
2022/03/31 05:34:24;;;;;;;15.47;11.40;;;10.30;68.90;;;-142.21;100.00;112049.66;4952412;29;20463;-73
2022/03/31 05:36:51;;;;;;;19.03;11.63;;;10.30;68.30;;;-142.21;100.00;112049.66;4951401;29;20453;-72
2022/03/31 05:39:18;;;;;;;16.33;11.10;;;10.20;68.70;;;-142.21;100.00;112049.66;4953327;29;20980;-72
2022/03/31 05:41:47;;;;;;;14.03;10.97;;;10.10;69.10;;;-142.21;100.00;112049.66;4952675;29;20453;-72
2022/03/31 05:44:14;;;;;;;16.33;11.50;;;10.10;69.30;;;-142.21;100.00;112049.66;4953875;28;20477;-72
2022/03/31 05:46:42;;;;;;;15.20;10.57;;;10.30;69.00;;;-142.21;100.00;112049.66;4952799;29;20493;-72
2022/03/31 05:49:10;;;;;;;15.67;10.80;;;10.30;69.20;;;-142.21;100.00;112049.66;4953350;29;20461;-72
2022/03/31 05:51:37;;;;;;;17.23;11.37;;;10.40;68.50;;;-142.21;100.00;112049.66;4953525;29;20452;-72
2022/03/31 05:54:04;;;;;;;16.40;11.10;;;10.40;68.20;;;-142.21;100.00;112049.66;4955677;28;20787;-72
2022/03/31 05:56:32;;;;;;;14.97;10.90;;;10.50;68.00;;;-142.21;100.00;112049.66;4953242;29;20468;-71
2022/03/31 05:59:01;;;;;;;16.13;11.23;;;10.50;68.30;;;-142.21;100.00;112049.66;4954633;28;20964;-72
2022/03/31 06:01:28;;;;;;;16.87;11.57;;;10.50;68.30;;;-142.21;100.00;112049.66;4957006;29;20472;-72
2022/03/31 06:03:55;;;;;;;16.37;12.03;;;10.60;68.40;;;-142.21;100.00;112049.66;4954994;29;20455;-72
2022/03/31 06:06:23;;;;;;;16.47;11.33;;;10.60;68.00;;;-142.21;100.00;112049.66;4957129;29;20531;-72
2022/03/31 06:08:50;;;;;;;19.10;11.90;;;10.60;67.80;;;-142.21;100.00;112049.66;4956572;29;20515;-72
2022/03/31 06:11:17;;;;;;;16.63;12.30;;;10.60;67.80;;;-142.21;100.00;112049.66;4956244;29;20468;-73
2022/03/31 06:13:45;;;;;;;16.13;10.67;;;10.60;67.80;;;-142.21;100.00;112049.66;4956158;29;20457;-72
2022/03/31 06:16:13;;;;;;;16.67;10.77;;;10.60;67.80;;;-142.21;100.00;112049.66;4956821;29;20449;-72
2022/03/31 06:18:41;;;;;;;19.07;12.30;;;10.60;68.40;;;-142.21;100.00;112049.66;4955809;28;20945;-72
2022/03/31 06:21:09;;;;;;;16.70;11.80;;;10.50;68.10;;;-142.21;100.00;112049.66;4958739;28;20448;-72
2022/03/31 06:23:36;;;;;;;17.27;12.40;;;10.60;68.20;;;-142.21;100.00;112049.66;4947535;29;20483;-72
2022/03/31 06:26:04;;;;;;;14.80;10.07;;;10.70;68.20;;;-142.21;100.00;112049.66;4953623;29;20575;-72
2022/03/31 06:28:32;;;;;;;18.57;11.77;;;10.70;68.40;;;-142.21;100.00;112049.66;4956731;28;20444;-72
2022/03/31 06:31:00;;;;;;;16.13;10.87;;;10.70;67.90;;;-142.21;100.00;112049.66;4956451;29;20449;-72
2022/03/31 06:33:28;;;;;;;14.23;11.10;;;10.70;67.80;;;-142.21;100.00;112049.66;4955983;29;20463;-72
2022/03/31 06:35:55;;;;;;;16.63;11.30;;;10.80;67.80;;;-142.21;100.00;112049.66;4956148;29;20449;-70
2022/03/31 06:38:23;;;;;;;13.70;11.07;;;10.90;67.80;;;-142.21;100.00;112049.66;4960118;28;20459;-72
2022/03/31 06:43:31;;;;;;;16.23;11.03;;;10.90;67.80;;;-142.21;100.00;112049.66;4952025;29;20449;-72
2022/03/31 06:45:58;;;;;;;17.60;10.83;;;10.80;68.10;;;-142.21;100.00;112049.66;4959246;29;20493;-72
2022/03/31 06:48:26;;;;;;;15.90;10.93;;;10.80;68.00;;;-142.21;100.00;112049.66;4955858;29;20484;-71
2022/03/31 06:50:54;;;;;;;14.37;10.53;;;10.80;68.20;;;-142.21;100.00;112049.66;4959345;28;20461;-71
2022/03/31 06:53:22;;;;;;;16.93;11.83;;;10.80;68.30;;;-142.21;100.00;112049.66;4959371;28;20542;-72
2022/03/31 06:55:49;;;;;;;15.57;10.87;;;10.70;68.40;;;-142.21;100.00;112049.66;4965666;28;20452;-73
2022/03/31 06:58:16;;;;;;;19.37;11.53;;;10.70;68.60;;;-142.21;100.00;112049.66;4957838;28;20479;-73
2022/03/31 07:00:44;;;;;;;16.33;10.97;;;10.70;68.50;;;-142.21;100.00;112049.66;4950552;29;20503;-72
2022/03/31 07:03:11;;;;;;;17.60;11.97;;;10.70;68.60;;;-142.21;100.00;112049.66;4955701;29;20535;-73
2022/03/31 07:05:39;;;;;;;16.60;11.53;;;10.80;68.80;;;-142.21;100.00;112049.66;4955201;29;20492;-73
2022/03/31 07:08:08;;;;;;;16.77;11.80;;;10.80;68.80;;;-142.21;100.00;112049.66;4954415;29;20539;-73
2022/03/31 07:10:35;;;;;;;16.20;11.17;;;10.90;68.20;;;-142.21;100.00;112049.66;4953875;28;20973;-74
2022/03/31 07:13:03;;;;;;;15.80;11.33;;;10.90;68.20;;;-142.21;100.00;112049.66;4955161;29;20965;-74
2022/03/31 07:15:31;;;;;;;15.87;11.90;;;11.00;68.00;;;-142.21;100.00;112049.66;4954353;29;20453;-73
2022/03/31 07:18:03;;;;;;;15.90;11.77;;;11.00;67.50;;;-142.21;100.00;112049.66;4955411;29;20453;-74
2022/03/31 07:20:30;;;;;;;15.67;11.40;;;11.00;67.90;;;-142.21;100.00;112049.66;4955400;29;21025;-73
2022/03/31 07:22:58;;;;;;;18.30;11.93;;;10.90;67.50;;;-142.21;100.00;112049.66;4953874;29;20561;-74
2022/03/31 07:25:28;;;;;;;14.63;10.80;;;10.80;68.00;;;-142.21;100.00;112049.66;4955368;29;20523;-74
2022/03/31 07:27:56;;;;;;;15.67;11.43;;;10.80;68.60;;;-142.21;100.00;112049.66;4955070;29;20858;-73
2022/03/31 07:30:25;;;;;;;15.27;10.80;;;10.90;68.70;;;-142.21;100.00;112049.66;4937379;29;21029;-72
2022/03/31 07:32:55;;;;;;;16.47;11.47;;;10.90;69.00;;;-142.21;100.00;112049.66;4954480;28;20540;-72
2022/03/31 07:35:26;;;;;;;16.13;11.30;;;10.90;69.50;;;-142.21;100.00;112049.66;4954685;29;20444;-72
2022/03/31 07:37:55;;;;;;;15.83;11.03;;;10.90;69.20;;;-142.21;100.00;112049.66;4954372;29;20537;-73
2022/03/31 07:40:25;;;;;;;16.70;11.20;;;11.10;68.80;;;-142.21;100.00;112049.66;4954483;29;20939;-73
2022/03/31 07:42:54;;;;;;;16.37;11.60;;;11.10;68.50;;;-142.21;100.00;112049.66;4954242;29;20480;-73
2022/03/31 07:45:22;;;;;;;16.07;11.07;;;11.10;68.90;;;-142.21;100.00;112049.66;4954976;29;20457;-73
2022/03/31 07:47:50;;;;;;;17.07;11.87;;;11.20;68.50;;;-142.21;100.00;112049.66;4954519;28;20489;-73
2022/03/31 07:50:20;;;;;;;18.07;12.50;;;11.30;68.50;;;-142.21;100.00;112049.66;4953344;29;20468;-74
2022/03/31 07:52:47;;;;;;;16.33;11.40;;;11.30;68.10;;;-142.21;100.00;112049.66;4953030;29;20828;-74
2022/03/31 07:55:20;;;;;;;15.87;11.63;;;11.40;68.30;;;-142.21;100.00;112049.66;4954230;29;20556;-75
2022/03/31 07:57:49;;;;;;;16.17;12.17;;;11.50;68.30;;;-142.21;100.00;112049.66;4954425;29;20488;-74
2022/03/31 08:00:20;;;;;;;15.83;11.50;;;11.40;67.20;;;-142.21;100.00;112049.66;4954584;29;20455;-74
2022/03/31 08:02:49;;;;;;;18.13;12.10;;;11.50;68.80;;;-142.21;100.00;112049.66;4956062;28;20869;-73
2022/03/31 08:05:18;;;;;;;16.07;11.90;;;11.50;68.30;;;-142.21;100.00;112049.66;4953723;29;20548;-73
2022/03/31 08:07:46;;;;;;;14.73;11.03;;;11.60;68.70;;;-142.21;100.00;112049.66;4952673;29;20510;-73
2022/03/31 08:10:14;;;;;;;18.10;12.47;;;11.70;68.60;;;-142.21;100.00;112049.66;4952097;28;20445;-73
2022/03/31 08:12:42;;;;;;;15.57;11.87;;;11.80;68.50;;;-142.21;100.00;112049.66;4951137;28;20474;-73
2022/03/31 08:15:12;;;;;;;17.20;12.57;;;11.90;67.50;;;-142.21;100.00;112049.66;4964070;28;20468;-74
2022/03/31 08:17:41;;;;;;;17.70;12.30;;;11.90;68.60;;;-142.21;100.00;112049.66;4954166;28;20456;-74
2022/03/31 08:20:10;;;;;;;17.93;12.77;;;12.00;68.50;;;-142.21;100.00;112049.66;4951763;29;20485;-74
2022/03/31 08:22:39;;;;;;;14.80;10.77;;;11.90;67.50;;;-142.21;100.00;112049.66;4954189;28;20476;-74
2022/03/31 08:25:08;;;;;;;16.67;11.97;;;11.90;68.00;;;-142.21;100.00;112049.66;4954894;29;20464;-75
2022/03/31 08:27:37;;;;;;;17.47;11.83;;;11.90;67.90;;;-142.21;100.00;112049.66;4954359;28;20563;-75
2022/03/31 08:30:07;;;;;;;16.40;12.33;;;11.90;68.40;;;-142.21;100.00;112049.66;4954849;29;20463;-74
2022/03/31 08:32:38;;;;;;;16.10;12.33;;;12.00;69.40;;;-142.21;100.00;112049.66;4955944;28;20532;-74
2022/03/31 08:35:09;;;;;;;16.20;12.13;;;12.10;68.40;;;-142.21;100.00;112049.66;4956632;28;20938;-74
2022/03/31 08:37:38;;;;;;;16.40;12.10;;;12.00;67.90;;;-142.21;100.00;112049.66;4952777;28;20864;-74
2022/03/31 08:40:08;;;;;;;16.87;12.30;;;12.00;67.70;;;-142.21;100.00;112049.66;4952646;29;20483;-72
2022/03/31 08:42:35;;;;;;;16.23;11.47;;;12.00;67.90;;;-142.21;100.00;112049.66;4952773;29;20437;-72
2022/03/31 08:45:05;;;;;;;15.97;11.80;;;12.10;67.20;;;-142.21;100.00;112049.66;4946470;28;20548;-73
2022/03/31 08:47:32;;;;;;;15.73;11.23;;;12.00;67.00;;;-142.21;100.00;112049.66;4940093;29;20539;-73
2022/03/31 08:49:59;;;;;;;16.70;11.87;;;12.00;67.10;;;-142.21;100.00;112049.66;4942267;29;20449;-73
2022/03/31 08:52:28;;;;;;;14.77;10.53;;;12.10;68.20;;;-142.21;100.00;112049.66;4952396;29;20544;-73
2022/03/31 08:54:55;;;;;;;13.93;11.30;;;12.10;67.40;;;-142.21;100.00;112049.66;4945900;29;20475;-73
2022/03/31 08:57:24;;;;;;;16.47;12.00;;;12.00;68.00;;;-142.21;100.00;112049.66;4961481;28;20477;-73
2022/03/31 08:59:52;;;;;;;14.47;10.13;;;11.90;67.50;;;-142.21;100.00;112049.66;4953567;28;20507;-73
2022/03/31 09:02:27;;;;;;;15.70;10.93;;;11.90;68.20;;;-142.21;100.00;112049.66;4950929;28;20997;-72
2022/03/31 09:05:03;;;;;;;15.07;10.60;;;11.70;68.90;;;-142.21;100.00;112049.66;4937441;29;20436;-73
2022/03/31 09:07:32;;;;;;;14.77;10.40;;;11.80;68.80;;;-142.21;100.00;112049.66;4952891;29;20574;-74
2022/03/31 09:09:59;;;;;;;14.67;11.43;;;12.00;68.80;;;-142.21;100.00;112049.66;4947555;29;20460;-74
2022/03/31 09:12:37;;;;;;;14.00;9.90;;;12.20;68.50;;;-142.21;100.00;112049.66;4953539;28;20567;-75
2022/03/31 09:15:10;;;;;;;14.27;10.43;;;12.10;66.90;;;-142.21;100.00;112049.66;4952930;29;20437;-76
2022/03/31 09:17:38;;;;;;;14.43;10.90;;;12.20;67.70;;;-142.21;100.00;112049.66;4952781;28;20984;-74
2022/03/31 09:20:06;;;;;;;15.40;10.50;;;12.10;67.20;;;-142.21;100.00;112049.66;4939823;29;20454;-74
2022/03/31 09:22:48;;;;;;;14.63;10.70;;;12.30;67.80;;;-142.21;100.00;112049.66;4948303;28;20546;-75
2022/03/31 09:25:25;;;;;;;15.63;11.40;;;12.20;67.20;;;-142.21;100.00;112049.66;4953395;29;20515;-74
2022/03/31 09:27:52;;;;;;;13.73;9.60;;;12.40;67.20;;;-142.21;100.00;112049.66;4943113;29;20572;-74
2022/03/31 09:30:20;;;;;;;14.33;10.53;;;12.50;66.70;;;-142.21;100.00;112049.66;4970449;28;20495;-73
2022/03/31 09:32:49;;;;;;;16.63;11.17;;;12.50;65.80;;;-142.21;100.00;112049.66;4964074;28;20471;-73
2022/03/31 09:35:20;;;;;;;12.97;10.07;;;12.70;66.40;;;-142.21;100.00;112049.66;4958653;28;20548;-73
2022/03/31 09:37:49;;;;;;;12.40;9.67;;;12.90;66.10;;;-142.21;100.00;112049.66;4956218;29;20957;-74
2022/03/31 09:40:17;;;;;;;13.70;10.03;;;13.50;65.20;;;-142.21;100.00;112049.66;4955645;28;20471;-74
2022/03/31 09:42:57;;;;;;;13.50;9.70;;;13.80;62.60;;;-142.21;100.00;112049.66;4960038;28;20459;-74
2022/03/31 09:45:24;;;;;;;13.00;10.10;;;14.00;61.90;;;-142.21;100.00;112049.66;4962844;28;20536;-74
2022/03/31 09:47:52;;;;;;;12.57;9.73;;;14.20;63.80;;;-142.21;100.00;112049.66;4957242;29;21025;-74
2022/03/31 09:50:20;;;;;;;14.30;10.10;;;14.30;62.80;;;-142.21;100.00;112049.66;4956670;29;20952;-74
2022/03/31 09:52:50;;;;;;;11.37;9.27;;;14.30;61.40;;;-142.21;100.00;112049.66;4957253;29;20448;-74